Aeroporto :
LOGIN :

Iscrizione | Disclaimer

   EN    FR    IT 

 










Sommario :    VFR   VFR Marginale   IFR   IFR Intensivo   IFR Molto Intensivo
Visibilità : 
Base nubi : 
>= 8 km
>= 3000ft
5 / 8 km
1000 / 3000 ft
1500m / 5 km
500 / 1000 ft
800 / 1500m
200 / 500 ft
< 800m
< 200 ft
Simboli :   Temporali  Nebbia  Neve Forte  Precipitazioni Forti  Vento > 20 kt
SIGMETs :   Varie  Temporali  Ghiacco  Turbolenza  Onda orograficha  Ceneri Vulcaniche







- Altitudine del aeroporto : 375 ft
- Codice IATA : MST


EHBK - Maastricht Aachen

ULTIMO METAR :
  • 230725Z AUTO 09006KT 060V120 4700 BR NSC M05/M06 Q0996 R03/410594 BECMG 7000 NSW

METARs OBSOLETI :
  • 230655Z AUTO 09006KT 060V120 5000 BR NSC M04/M05 Q0996 R03/410594 NOSIG
  • 230625Z AUTO 10008KT 6000 NSC M03/M05 Q0996 R03/410594 NOSIG
  • 230555Z AUTO 10005KT 6000 NSC M04/M05 Q0996 R03/450593 BECMG 8000
  • 230525Z AUTO 10007KT 7000 BKN028 M03/M05 Q0996 BECMG 8000
  • 230455Z AUTO 09006KT 060V120 7000 OVC028 M03/M05 Q0996 BECMG 8000

TAF TAF EHBK
Valido dal 23 a 06 ore il 24 a 12 ore UTC


230518Z 2306/2412 10006KT 9999 BKN018
PROB30 2306/2308 7000
PROB30
TEMPO 2312/2317 BKN008
BECMG 2321/2324 1200 BCFG
PROB30 2322/2409 0400 FZFG VV000
BECMG 2408/2411 9999 NSW
Nessun NOTAM noto per questo aeroporto.



MetMap, La meteo Aeronautica in un colpo d'occhio ! - Copyright ORBIFLY Dicembre 2007 - Disclaimer

ORBIFLY MET'MAP TEAM :

Programmazione e sviluppo : Alexandra Zaïnal
Concezione e sviluppo : Baudouin d'Aumeries
Co-Programmazione e sviluppo : Marc-Olivier Méhu
Supporto tecnico e logistico : Manuel Goepfert
Aiuto per la traduzione : Arnaldo La Scala

Contatto : metmap@orbifly.com




FONTI E CREDITI :

   NOAA